Time;durP1;ratioP1;P1;durP2;ratioP2;P2;SDS_P1;SDS_P2;PMS_P1;PMS_P2;Temp;Humidity;BMP_temperature;BMP_pressure;BME280_temperature;BME280_humidity;BME280_pressure;Samples;Min_cycle;Max_cycle;Signal;HPM_P1;HPM_P2
2022/10/22 00:00:15;;;;;;;128.10;65.57;;;12.20;99.90;;;;;;5094400;28;20028;-62
2022/10/22 00:02:42;;;;;;;133.30;70.10;;;12.20;99.90;;;;;;5093768;28;20310;-63
2022/10/22 00:05:09;;;;;;;142.05;71.90;;;12.10;99.90;;;;;;5094194;28;20032;-62
2022/10/22 00:07:35;;;;;;;130.30;69.78;;;12.20;99.90;;;;;;5094313;28;20027;-63
2022/10/22 00:10:02;;;;;;;147.57;75.65;;;12.10;99.90;;;;;;5094132;28;20149;-62
2022/10/22 00:12:28;;;;;;;152.75;75.82;;;12.20;99.90;;;;;;5097115;28;20401;-62
2022/10/22 00:14:54;;;;;;;155.45;77.10;;;12.20;99.90;;;;;;5095417;28;20020;-62
2022/10/22 00:17:20;;;;;;;147.63;73.13;;;12.30;99.90;;;;;;5097972;28;20028;-63
2022/10/22 00:19:45;;;;;;;147.85;73.95;;;12.30;99.90;;;;;;5098248;28;20112;-62
2022/10/22 00:22:11;;;;;;;148.07;71.32;;;12.30;99.90;;;;;;5097892;28;20051;-63
2022/10/22 00:24:38;;;;;;;135.88;67.55;;;12.30;99.90;;;;;;5097919;28;20024;-62
2022/10/22 00:27:06;;;;;;;151.15;73.97;;;12.20;99.90;;;;;;5097856;28;20294;-62
2022/10/22 00:29:32;;;;;;;132.73;65.20;;;12.30;99.90;;;;;;5079667;28;20028;-63
2022/10/22 00:31:57;;;;;;;137.63;66.22;;;12.30;99.90;;;;;;5097573;28;20463;-62
2022/10/22 00:34:23;;;;;;;135.82;65.70;;;12.40;99.90;;;;;;5097899;28;20074;-62
2022/10/22 00:36:50;;;;;;;113.68;59.55;;;12.40;99.90;;;;;;5097915;28;20055;-62
2022/10/22 00:39:19;;;;;;;117.95;60.13;;;12.40;99.90;;;;;;5097598;28;20059;-62
2022/10/22 00:41:47;;;;;;;116.00;58.67;;;12.40;99.90;;;;;;5097561;28;20078;-62
2022/10/22 00:44:50;;;;;;;130.82;63.38;;;12.40;99.90;;;;;;5097689;28;20081;-62
2022/10/22 00:47:18;;;;;;;116.43;59.42;;;12.40;99.90;;;;;;5097553;28;20028;-62
2022/10/22 00:49:45;;;;;;;123.78;60.67;;;12.40;99.90;;;;;;5097617;28;20024;-62
2022/10/22 00:52:12;;;;;;;129.80;65.43;;;12.40;99.90;;;;;;5097522;28;20139;-62
2022/10/22 00:54:39;;;;;;;129.18;64.50;;;12.40;99.90;;;;;;5097556;28;20016;-62
2022/10/22 00:57:06;;;;;;;126.22;65.18;;;12.40;99.90;;;;;;5097426;28;20039;-62
2022/10/22 00:59:32;;;;;;;126.25;62.60;;;12.40;99.90;;;;;;5097313;28;20032;-62
2022/10/22 01:01:58;;;;;;;121.88;61.28;;;12.30;99.90;;;;;;5097324;28;20061;-62
2022/10/22 01:04:24;;;;;;;101.30;53.95;;;12.50;99.90;;;;;;5097437;28;20464;-62
2022/10/22 01:06:50;;;;;;;99.82;54.15;;;12.40;99.90;;;;;;5096918;28;20123;-63
2022/10/22 01:09:26;;;;;;;95.68;50.85;;;12.40;99.90;;;;;;5097373;28;20164;-62
2022/10/22 01:12:05;;;;;;;105.90;55.00;;;12.30;99.90;;;;;;5097056;28;20506;-63
2022/10/22 01:14:47;;;;;;;95.75;51.83;;;12.20;99.90;;;;;;5096971;28;20048;-63
2022/10/22 01:17:35;;;;;;;92.50;49.05;;;12.20;99.90;;;;;;5097062;28;20063;-62
2022/10/22 01:20:24;;;;;;;93.82;51.60;;;12.20;99.90;;;;;;5096858;28;20396;-63
2022/10/22 01:23:09;;;;;;;89.80;49.70;;;12.00;99.90;;;;;;5096881;28;20028;-62
2022/10/22 01:25:46;;;;;;;95.97;50.58;;;12.00;99.90;;;;;;5096941;28;20077;-63
2022/10/22 01:28:12;;;;;;;99.53;53.30;;;12.00;99.90;;;;;;5096482;28;20052;-63
2022/10/22 01:30:39;;;;;;;94.35;51.55;;;12.00;99.90;;;;;;5096755;28;20381;-63
2022/10/22 01:33:09;;;;;;;95.22;50.35;;;11.90;99.90;;;;;;5096674;28;20020;-63
2022/10/22 01:35:39;;;;;;;96.82;50.80;;;12.00;99.90;;;;;;5096798;28;20120;-62
2022/10/22 01:38:09;;;;;;;93.88;49.83;;;12.00;99.90;;;;;;5096822;28;20483;-62
2022/10/22 01:40:36;;;;;;;95.53;50.28;;;11.90;99.90;;;;;;5096664;28;20110;-62
2022/10/22 01:43:06;;;;;;;93.53;49.28;;;11.80;99.90;;;;;;5096359;28;20081;-62
2022/10/22 01:45:59;;;;;;;92.23;49.40;;;11.80;99.90;;;;;;5096488;28;20059;-62
2022/10/22 01:48:37;;;;;;;100.95;50.70;;;11.80;99.90;;;;;;5093609;28;20741;-62
2022/10/22 01:51:07;;;;;;;94.43;51.13;;;12.00;99.90;;;;;;5096519;28;20553;-63
2022/10/22 01:53:42;;;;;;;91.68;49.65;;;11.90;99.90;;;;;;5096718;28;20046;-62
2022/10/22 01:56:26;;;;;;;95.05;49.20;;;11.80;99.90;;;;;;5096330;28;20033;-63
2022/10/22 01:59:17;;;;;;;85.40;43.13;;;11.80;99.90;;;;;;5061431;28;20031;-62
2022/10/22 02:02:15;;;;;;;83.13;42.65;;;11.90;99.90;;;;;;5096254;28;20063;-63
2022/10/22 02:04:48;;;;;;;82.13;43.85;;;11.90;99.90;;;;;;5095762;28;20044;-62
2022/10/22 02:07:18;;;;;;;91.78;44.35;;;11.70;99.90;;;;;;5095976;28;20054;-62
2022/10/22 02:09:45;;;;;;;91.25;44.33;;;11.70;99.90;;;;;;5095962;28;20443;-62
2022/10/22 02:12:12;;;;;;;83.18;41.80;;;11.60;99.90;;;;;;5095772;28;20051;-62
2022/10/22 02:14:42;;;;;;;79.20;41.72;;;11.60;99.90;;;;;;5096049;28;20063;-63
2022/10/22 02:17:14;;;;;;;80.50;42.72;;;11.60;99.90;;;;;;5095820;28;20024;-63
2022/10/22 02:19:57;;;;;;;80.50;42.35;;;11.60;99.90;;;;;;5095676;28;20066;-62
2022/10/22 02:22:25;;;;;;;84.75;44.47;;;11.50;99.90;;;;;;5095788;28;20107;-62
2022/10/22 02:24:50;;;;;;;75.97;42.63;;;11.40;99.90;;;;;;5095753;28;20478;-63
2022/10/22 02:27:26;;;;;;;78.80;41.60;;;11.30;99.90;;;;;;5095654;28;20102;-63
2022/10/22 02:30:01;;;;;;;79.07;41.95;;;11.30;99.90;;;;;;5095594;28;20026;-62
2022/10/22 02:32:38;;;;;;;82.35;41.33;;;11.30;99.90;;;;;;5095375;28;20024;-62
2022/10/22 02:35:06;;;;;;;78.10;39.55;;;11.20;99.90;;;;;;5095087;28;20027;-62
2022/10/22 02:37:32;;;;;;;80.63;41.35;;;11.20;99.90;;;;;;5095977;28;20016;-63
2022/10/22 02:39:58;;;;;;;87.68;45.85;;;11.20;99.90;;;;;;5077275;28;20105;-63
2022/10/22 02:42:25;;;;;;;92.43;44.45;;;11.20;99.90;;;;;;5095337;28;20424;-62
2022/10/22 02:44:51;;;;;;;81.50;41.33;;;11.20;99.90;;;;;;5095459;28;20024;-62
2022/10/22 02:47:17;;;;;;;80.38;41.05;;;11.30;99.90;;;;;;5095146;28;20030;-63
2022/10/22 02:49:43;;;;;;;75.32;39.60;;;11.40;99.90;;;;;;5095514;28;20032;-63
2022/10/22 02:52:09;;;;;;;66.80;37.33;;;11.50;99.90;;;;;;5095308;28;20016;-62
2022/10/22 02:54:35;;;;;;;72.13;36.83;;;11.60;99.90;;;;;;5095156;28;20020;-62
2022/10/22 02:57:01;;;;;;;66.22;35.92;;;11.50;99.90;;;;;;5095381;28;20440;-62
2022/10/22 02:59:27;;;;;;;70.00;37.45;;;11.40;99.90;;;;;;5095190;28;20081;-62
2022/10/22 03:01:52;;;;;;;72.80;36.92;;;11.50;99.90;;;;;;5094775;28;20119;-62
2022/10/22 03:04:18;;;;;;;65.18;36.25;;;11.40;99.90;;;;;;5094988;28;20080;-63
2022/10/22 03:06:47;;;;;;;72.35;37.67;;;11.40;99.90;;;;;;5094899;28;20028;-62
2022/10/22 03:09:13;;;;;;;70.53;38.80;;;11.40;99.90;;;;;;5094867;28;20099;-62
2022/10/22 03:11:39;;;;;;;70.38;37.55;;;11.40;99.90;;;;;;5094949;28;20124;-63
2022/10/22 03:14:05;;;;;;;80.32;39.15;;;11.40;99.90;;;;;;5094860;28;20028;-63
2022/10/22 03:16:31;;;;;;;74.88;36.75;;;11.40;99.90;;;;;;5094724;28;20039;-62
2022/10/22 03:18:57;;;;;;;70.63;36.47;;;11.40;99.90;;;;;;5094793;28;20032;-63
2022/10/22 03:21:34;;;;;;;67.20;35.85;;;11.40;99.90;;;;;;5094723;28;20059;-63
2022/10/22 03:24:18;;;;;;;73.10;36.15;;;11.40;99.90;;;;;;5094667;28;20596;-63
2022/10/22 03:26:44;;;;;;;61.35;32.58;;;11.50;99.90;;;;;;5094685;28;20113;-62
2022/10/22 03:29:14;;;;;;;62.08;32.03;;;11.40;99.90;;;;;;5094392;28;20040;-62
2022/10/22 03:31:40;;;;;;;61.60;32.53;;;11.40;99.90;;;;;;5094749;28;20024;-63
2022/10/22 03:34:06;;;;;;;62.80;33.10;;;11.30;99.90;;;;;;5094586;28;20028;-62
2022/10/22 03:36:32;;;;;;;69.25;36.67;;;11.40;99.90;;;;;;5094504;28;20218;-63
2022/10/22 03:39:00;;;;;;;63.92;35.25;;;11.30;99.90;;;;;;5094561;28;20505;-62
2022/10/22 03:41:27;;;;;;;73.88;37.47;;;11.40;99.90;;;;;;5094420;28;20042;-62
2022/10/22 03:43:54;;;;;;;68.78;35.10;;;11.30;99.90;;;;;;5094442;28;20028;-63
2022/10/22 03:46:20;;;;;;;65.85;33.88;;;11.30;99.90;;;;;;5093557;28;20024;-63
2022/10/22 03:48:46;;;;;;;60.90;32.60;;;11.20;99.90;;;;;;5094582;28;20301;-62
2022/10/22 03:51:12;;;;;;;61.83;31.52;;;11.30;99.90;;;;;;5094296;28;20291;-62
2022/10/22 03:53:38;;;;;;;55.83;29.45;;;11.30;99.90;;;;;;5076220;28;20085;-63
2022/10/22 03:56:10;;;;;;;56.33;29.70;;;11.40;99.90;;;;;;5094397;28;20085;-63
2022/10/22 03:58:38;;;;;;;54.47;28.75;;;11.40;99.90;;;;;;5094268;28;20024;-63
2022/10/22 04:01:06;;;;;;;50.15;28.08;;;11.20;99.90;;;;;;5076369;28;20035;-63
2022/10/22 04:03:32;;;;;;;52.88;29.77;;;11.10;99.90;;;;;;5094228;28;20028;-63
2022/10/22 04:06:09;;;;;;;52.90;28.80;;;11.10;99.90;;;;;;5093914;28;20496;-63
2022/10/22 04:08:37;;;;;;;57.00;27.75;;;10.90;99.90;;;;;;5094350;28;20024;-63
2022/10/22 04:11:03;;;;;;;52.78;27.63;;;10.90;99.90;;;;;;5094079;28;20043;-63
2022/10/22 04:13:29;;;;;;;50.97;26.65;;;10.90;99.90;;;;;;5094162;28;20039;-63
2022/10/22 04:15:55;;;;;;;61.03;30.58;;;10.90;99.90;;;;;;5094150;28;20036;-62
2022/10/22 04:18:22;;;;;;;52.80;25.42;;;10.80;99.90;;;;;;5094124;28;20129;-63
2022/10/22 04:20:50;;;;;;;47.47;24.95;;;10.80;99.90;;;;;;5094060;28;20115;-63
2022/10/22 04:23:16;;;;;;;54.85;24.00;;;10.80;99.90;;;;;;5094129;28;20060;-63
2022/10/22 04:25:42;;;;;;;53.70;26.83;;;11.00;99.90;;;;;;5093948;28;20122;-63
2022/10/22 04:28:09;;;;;;;52.47;25.58;;;10.90;99.90;;;;;;5094089;28;20423;-63
2022/10/22 04:30:36;;;;;;;50.63;25.88;;;10.90;99.90;;;;;;5093968;28;20484;-62
2022/10/22 04:33:02;;;;;;;59.72;32.42;;;10.90;99.90;;;;;;5093818;28;20027;-63
2022/10/22 04:35:28;;;;;;;67.07;35.15;;;10.80;99.90;;;;;;5093825;28;20366;-62
2022/10/22 04:37:55;;;;;;;58.78;29.88;;;10.90;99.90;;;;;;5093903;28;20511;-63
2022/10/22 04:40:21;;;;;;;51.13;27.30;;;11.00;99.90;;;;;;5093733;28;20038;-63
2022/10/22 04:42:47;;;;;;;50.25;27.88;;;11.10;99.90;;;;;;5094011;28;20028;-63
2022/10/22 04:45:14;;;;;;;57.28;27.80;;;11.10;99.90;;;;;;5093644;28;20032;-63
2022/10/22 04:47:40;;;;;;;59.33;28.73;;;11.10;99.90;;;;;;5093718;28;20031;-63
2022/10/22 04:50:06;;;;;;;73.18;30.08;;;11.10;99.90;;;;;;5093980;28;20028;-63
2022/10/22 04:52:32;;;;;;;58.10;28.05;;;11.00;99.90;;;;;;5093869;28;20125;-63
2022/10/22 04:54:58;;;;;;;52.58;27.55;;;11.00;99.90;;;;;;5093690;28;20588;-62
2022/10/22 04:57:28;;;;;;;89.75;43.63;;;10.90;99.90;;;;;;5094898;28;20382;-63
2022/10/22 04:59:53;;;;;;;89.57;46.50;;;10.90;99.90;;;;;;5097394;28;20032;-63
2022/10/22 05:02:19;;;;;;;83.80;39.95;;;10.90;99.90;;;;;;5097296;28;20026;-63
2022/10/22 05:04:45;;;;;;;68.45;33.30;;;10.80;99.90;;;;;;5097168;28;20043;-63
2022/10/22 05:07:11;;;;;;;63.30;31.85;;;10.90;99.90;;;;;;5097203;28;20044;-63
2022/10/22 05:09:37;;;;;;;64.05;30.30;;;10.80;99.90;;;;;;5097041;28;20024;-62
2022/10/22 05:12:05;;;;;;;60.38;32.10;;;10.70;99.90;;;;;;5097233;28;20071;-63
2022/10/22 05:14:31;;;;;;;70.97;35.22;;;10.70;99.90;;;;;;5097176;28;20036;-63
2022/10/22 05:16:57;;;;;;;74.35;35.80;;;10.70;99.90;;;;;;5096883;28;20378;-63
2022/10/22 05:19:26;;;;;;;91.72;46.83;;;10.70;99.90;;;;;;5078715;28;20466;-63
2022/10/22 05:21:53;;;;;;;94.45;48.05;;;10.80;99.90;;;;;;5097060;28;20035;-63
2022/10/22 05:24:20;;;;;;;111.45;54.15;;;10.90;99.90;;;;;;5097208;28;20032;-62
2022/10/22 05:26:51;;;;;;;110.30;51.67;;;10.90;99.90;;;;;;5096932;28;20043;-63
2022/10/22 05:29:18;;;;;;;63.08;31.55;;;11.10;99.90;;;;;;5096748;28;20473;-63
2022/10/22 05:31:44;;;;;;;80.95;36.58;;;11.20;99.90;;;;;;5096629;28;20458;-63
2022/10/22 05:47:15;;;;;;;57.15;28.90;;;11.40;99.90;;;;;;5103649;27;20363;-65
2022/10/22 05:49:41;;;;;;;53.75;27.25;;;11.90;99.90;;;;;;5071270;28;20035;-65
2022/10/22 05:52:07;;;;;;;48.92;25.23;;;12.00;99.90;;;;;;5071208;28;20028;-65
2022/10/22 05:54:32;;;;;;;54.60;27.33;;;12.10;99.90;;;;;;5070898;28;20020;-65
2022/10/22 05:56:58;;;;;;;74.68;31.50;;;12.10;99.90;;;;;;5071064;28;20036;-65
2022/10/22 05:59:24;;;;;;;86.70;39.80;;;12.20;99.90;;;;;;5070740;28;20351;-65
2022/10/22 06:01:50;;;;;;;85.90;40.17;;;12.20;99.90;;;;;;5070955;28;20032;-65
2022/10/22 06:04:16;;;;;;;75.50;36.25;;;12.20;99.90;;;;;;5070830;28;20035;-65
2022/10/22 06:06:49;;;;;;;78.30;39.28;;;12.30;99.90;;;;;;5069743;28;20029;-65
2022/10/22 06:09:22;;;;;;;62.30;33.45;;;12.20;99.90;;;;;;5071190;28;20036;-65
2022/10/22 06:11:49;;;;;;;91.20;42.42;;;12.10;99.90;;;;;;5071326;28;20032;-65
2022/10/22 06:14:16;;;;;;;102.57;48.00;;;12.10;99.90;;;;;;5071121;28;20032;-65
2022/10/22 06:16:42;;;;;;;119.60;58.38;;;12.30;99.90;;;;;;5071062;28;20055;-65
2022/10/22 06:19:14;;;;;;;140.52;66.97;;;12.30;99.90;;;;;;5071134;28;20025;-65
2022/10/22 06:21:40;;;;;;;152.18;72.07;;;12.30;99.90;;;;;;5070849;28;20028;-65
2022/10/22 06:24:06;;;;;;;116.10;58.53;;;12.50;99.90;;;;;;5070981;28;20047;-65
2022/10/22 06:26:32;;;;;;;58.33;28.98;;;13.50;99.90;;;;;;5070917;28;20025;-65
2022/10/22 06:28:58;;;;;;;101.82;50.78;;;14.30;99.90;;;;;;5070877;28;20381;-65
2022/10/22 06:31:25;;;;;;;88.35;45.22;;;15.40;99.90;;;;;;5070755;28;20040;-65
2022/10/22 06:33:51;;;;;;;87.03;41.92;;;15.60;99.90;;;;;;5070532;28;20489;-65
2022/10/22 06:36:20;;;;;;;70.85;37.55;;;15.10;99.90;;;;;;5070483;28;20025;-65
2022/10/22 06:38:45;;;;;;;57.58;29.50;;;15.20;99.90;;;;;;5070590;28;20029;-65
2022/10/22 06:41:13;;;;;;;59.65;26.77;;;15.60;99.90;;;;;;5070407;28;20044;-66
2022/10/22 06:43:41;;;;;;;57.80;30.52;;;16.00;99.90;;;;;;5070480;28;20386;-65
2022/10/22 06:46:08;;;;;;;66.68;28.65;;;16.40;99.90;;;;;;5069158;28;20393;-66
2022/10/22 06:48:36;;;;;;;65.78;30.25;;;17.20;99.30;;;;;;5057047;28;20103;-66
2022/10/22 06:51:04;;;;;;;53.67;28.00;;;17.80;97.00;;;;;;5057471;28;20025;-66
2022/10/22 06:53:31;;;;;;;51.83;28.02;;;18.20;93.70;;;;;;5057111;28;20087;-66
2022/10/22 06:55:56;;;;;;;55.58;29.95;;;18.40;91.80;;;;;;5056838;28;20064;-66
2022/10/22 06:58:22;;;;;;;61.20;28.58;;;18.70;91.00;;;;;;5057060;28;20032;-66
2022/10/22 07:00:48;;;;;;;56.40;26.13;;;19.00;87.80;;;;;;5057006;28;20029;-66
2022/10/22 07:03:14;;;;;;;54.90;26.25;;;19.50;84.40;;;;;;5056933;28;20081;-66
2022/10/22 07:05:41;;;;;;;48.53;26.65;;;19.20;82.90;;;;;;5056916;28;20029;-66
2022/10/22 07:08:07;;;;;;;49.38;25.55;;;19.80;81.90;;;;;;5056907;28;20025;-66
2022/10/22 07:10:33;;;;;;;60.70;27.75;;;19.40;79.20;;;;;;5056814;28;20032;-66
2022/10/22 07:12:59;;;;;;;56.92;29.05;;;19.70;79.80;;;;;;5056725;28;20462;-66
2022/10/22 07:15:25;;;;;;;52.67;27.92;;;20.10;78.40;;;;;;5056787;28;20040;-66
2022/10/22 07:17:51;;;;;;;52.17;25.52;;;20.50;75.30;;;;;;5056743;28;20086;-66
2022/10/22 07:20:17;;;;;;;53.17;26.65;;;20.90;73.50;;;;;;5056898;28;20025;-66
2022/10/22 07:22:44;;;;;;;58.58;27.58;;;20.90;73.00;;;;;;5055229;28;20025;-66
2022/10/22 07:25:10;;;;;;;53.80;26.58;;;21.10;70.60;;;;;;5056529;28;20021;-66
2022/10/22 07:27:36;;;;;;;62.45;27.15;;;20.50;70.90;;;;;;5056560;28;20064;-66
2022/10/22 07:30:03;;;;;;;48.22;24.40;;;20.80;70.40;;;;;;5055398;28;20020;-66
2022/10/22 07:32:29;;;;;;;45.50;24.27;;;20.10;71.40;;;;;;5056182;28;20458;-66
2022/10/22 07:34:55;;;;;;;44.90;24.02;;;19.80;72.00;;;;;;5056451;28;20123;-66
2022/10/22 07:37:21;;;;;;;48.05;24.50;;;19.40;73.40;;;;;;5056329;28;20033;-66
2022/10/22 07:39:47;;;;;;;55.03;25.25;;;19.40;74.20;;;;;;5056431;28;20096;-65
2022/10/22 07:42:14;;;;;;;49.80;22.88;;;19.00;75.40;;;;;;5056377;28;20428;-65
2022/10/22 07:44:39;;;;;;;48.28;23.90;;;19.00;76.50;;;;;;5056244;28;20071;-66
2022/10/22 07:47:05;;;;;;;43.80;23.10;;;19.10;75.80;;;;;;5055969;28;20052;-66
2022/10/22 07:49:31;;;;;;;45.17;21.90;;;19.00;78.60;;;;;;5056333;28;20294;-66
2022/10/22 07:51:57;;;;;;;40.75;21.30;;;19.40;74.60;;;;;;5056070;28;20028;-66
2022/10/22 07:54:23;;;;;;;43.60;19.83;;;19.90;73.50;;;;;;5055991;28;20397;-66
2022/10/22 07:56:49;;;;;;;35.20;19.52;;;20.60;72.70;;;;;;5055927;28;20579;-66
2022/10/22 07:59:15;;;;;;;38.60;19.65;;;21.50;69.80;;;;;;5054978;28;20094;-66
2022/10/22 08:01:41;;;;;;;40.90;20.77;;;22.50;66.90;;;;;;5055783;28;20025;-66
2022/10/22 08:04:08;;;;;;;41.92;18.73;;;23.10;62.50;;;;;;5055913;28;20040;-66
2022/10/22 08:06:35;;;;;;;34.35;16.17;;;23.70;60.70;;;;;;5055789;28;20055;-66
2022/10/22 08:09:01;;;;;;;40.33;16.60;;;23.00;57.70;;;;;;5055713;28;20029;-66
2022/10/22 08:11:27;;;;;;;34.08;17.38;;;23.20;57.90;;;;;;5055719;28;20037;-66
2022/10/22 08:13:53;;;;;;;34.17;17.70;;;22.90;59.50;;;;;;5055820;28;20087;-66
2022/10/22 08:16:19;;;;;;;38.55;19.48;;;23.20;58.50;;;;;;5055513;28;20120;-66
2022/10/22 08:18:45;;;;;;;36.05;17.92;;;22.70;56.90;;;;;;5055536;28;20029;-66
2022/10/22 08:21:13;;;;;;;39.78;19.40;;;22.80;58.00;;;;;;5055486;28;20075;-66
2022/10/22 08:23:39;;;;;;;38.20;19.42;;;22.80;61.10;;;;;;5055551;28;20021;-67
2022/10/22 08:26:05;;;;;;;50.90;29.27;;;23.30;57.60;;;;;;5055517;28;20555;-67
2022/10/22 08:28:35;;;;;;;79.47;44.63;;;23.60;58.20;;;;;;5055504;28;20099;-67
2022/10/22 08:31:03;;;;;;;78.32;41.63;;;23.80;59.90;;;;;;5055354;28;20575;-67
2022/10/22 08:33:29;;;;;;;73.40;39.95;;;23.90;58.30;;;;;;5055270;28;20525;-67
2022/10/22 08:35:55;;;;;;;70.57;37.83;;;24.10;57.90;;;;;;5055069;28;20073;-67
2022/10/22 08:38:21;;;;;;;72.22;37.17;;;24.00;58.80;;;;;;5054094;28;20033;-67
2022/10/22 08:40:51;;;;;;;61.60;35.53;;;24.40;57.50;;;;;;5055179;28;20028;-67
2022/10/22 08:43:17;;;;;;;;;;;25.00;58.00;;;;;;5055686;28;20028;-67
2022/10/22 08:46:03;;;;;;;62.17;35.60;;;25.50;54.80;;;;;;5054846;28;19939;-67
2022/10/22 08:48:45;;;;;;;69.38;36.65;;;26.10;54.10;;;;;;5054948;28;20037;-67
2022/10/22 08:51:20;;;;;;;59.60;34.97;;;26.10;52.90;;;;;;5055087;28;20401;-67
2022/10/22 08:54:04;;;;;;;57.90;33.03;;;26.50;53.10;;;;;;5054969;28;20025;-67
2022/10/22 08:56:31;;;;;;;54.50;32.38;;;27.60;51.20;;;;;;5054782;28;20029;-67
2022/10/22 08:59:01;;;;;;;55.83;30.85;;;27.90;48.80;;;;;;5054840;28;20025;-67
2022/10/22 09:01:44;;;;;;;48.63;29.17;;;28.20;47.90;;;;;;5054804;28;20029;-67
2022/10/22 09:04:14;;;;;;;51.15;30.48;;;28.00;47.60;;;;;;5054737;28;20033;-67
2022/10/22 09:06:43;;;;;;;56.85;28.77;;;28.40;46.70;;;;;;5054820;28;20397;-67
2022/10/22 09:09:16;;;;;;;46.63;26.52;;;28.30;46.80;;;;;;5054469;28;20379;-67
2022/10/22 09:11:47;;;;;;;43.33;26.52;;;28.50;44.60;;;;;;5054778;28;20040;-67
2022/10/22 09:14:16;;;;;;;47.03;28.95;;;28.70;45.10;;;;;;5054666;28;20088;-67
2022/10/22 09:17:17;;;;;;;54.30;28.42;;;28.10;45.30;;;;;;5054430;28;20125;-67
2022/10/22 09:20:01;;;;;;;44.22;25.88;;;27.90;45.40;;;;;;5054511;28;20029;-67
2022/10/22 09:22:41;;;;;;;44.75;25.98;;;28.10;45.80;;;;;;5054561;28;20086;-67
2022/10/22 09:25:23;;;;;;;51.13;26.87;;;27.60;47.50;;;;;;5054488;28;20363;-67
2022/10/22 09:27:51;;;;;;;60.10;26.00;;;28.20;45.40;;;;;;5054349;28;20031;-67
2022/10/22 09:30:22;;;;;;;57.55;25.40;;;28.30;44.50;;;;;;5054461;28;20568;-67
2022/10/22 09:32:59;;;;;;;81.47;28.08;;;27.60;46.40;;;;;;5054262;28;20039;-67
2022/10/22 09:35:25;;;;;;;57.08;23.10;;;27.90;45.90;;;;;;5054213;28;20029;-67
2022/10/22 09:37:55;;;;;;;57.50;23.10;;;28.50;46.80;;;;;;5054368;28;20108;-67
2022/10/22 09:40:22;;;;;;;73.88;22.88;;;28.70;43.90;;;;;;5054318;28;20043;-68
2022/10/22 09:42:48;;;;;;;60.55;22.58;;;28.90;44.10;;;;;;5054243;28;20056;-68
2022/10/22 09:45:22;;;;;;;55.88;23.35;;;29.10;43.50;;;;;;5054136;28;20050;-67
2022/10/22 09:47:48;;;;;;;51.03;23.27;;;29.10;43.40;;;;;;5054252;28;20036;-67
2022/10/22 09:50:17;;;;;;;51.95;21.15;;;29.30;43.50;;;;;;5054408;28;20036;-67
2022/10/22 09:52:43;;;;;;;53.15;21.95;;;29.40;42.20;;;;;;5054250;28;20021;-67
2022/10/22 09:55:17;;;;;;;54.63;21.77;;;29.60;42.80;;;;;;5054317;28;20044;-67
2022/10/22 09:57:52;;;;;;;49.40;19.50;;;29.40;40.60;;;;;;5054315;28;20029;-67
2022/10/22 10:00:19;;;;;;;47.47;20.88;;;30.00;42.10;;;;;;5053878;28;20037;-68
2022/10/22 10:02:45;;;;;;;37.42;18.90;;;30.60;40.30;;;;;;5054076;28;20465;-68
2022/10/22 10:05:23;;;;;;;37.50;18.08;;;31.10;39.80;;;;;;5054178;28;20032;-68
2022/10/22 10:07:49;;;;;;;41.95;19.83;;;31.10;39.20;;;;;;5053899;28;20041;-68
2022/10/22 10:11:04;;;;;;;44.88;19.17;;;31.30;39.40;;;;;;5054031;28;20028;-68
2022/10/22 10:13:51;;;;;;;36.15;18.05;;;31.80;37.20;;;;;;5035756;28;20076;-68
2022/10/22 10:16:39;;;;;;;33.47;15.25;;;32.10;36.20;;;;;;5054002;28;20548;-68
2022/10/22 10:19:24;;;;;;;43.47;17.58;;;31.90;34.00;;;;;;5053993;28;20096;-68
2022/10/22 10:22:21;;;;;;;34.03;15.68;;;31.30;34.00;;;;;;5054643;28;20020;-67
2022/10/22 10:25:06;;;;;;;41.05;19.92;;;30.80;33.70;;;;;;5057697;28;20029;-67
2022/10/22 10:27:46;;;;;;;38.15;20.15;;;30.30;36.50;;;;;;5057722;28;20036;-67
2022/10/22 10:30:15;;;;;;;38.30;20.85;;;30.20;37.20;;;;;;5057629;28;20027;-67
2022/10/22 10:32:53;;;;;;;40.75;21.05;;;29.50;39.20;;;;;;5057274;28;20021;-67
2022/10/22 10:35:43;;;;;;;46.53;21.90;;;29.10;40.50;;;;;;5057614;28;20037;-67
2022/10/22 10:38:24;;;;;;;45.47;24.55;;;28.60;43.40;;;;;;5057464;28;20028;-67
2022/10/22 10:40:56;;;;;;;38.30;21.55;;;29.40;41.00;;;;;;5057326;28;20497;-67
2022/10/22 10:43:43;;;;;;;46.95;22.95;;;29.30;41.30;;;;;;5057449;28;20363;-67
2022/10/22 10:46:29;;;;;;;37.30;20.55;;;29.50;40.20;;;;;;5057063;28;20049;-67
2022/10/22 10:48:59;;;;;;;38.85;21.02;;;29.50;40.00;;;;;;5057416;28;20293;-67
2022/10/22 10:51:43;;;;;;;;;;;29.20;38.80;;;;;;5057683;28;20538;-67
2022/10/22 10:54:21;;;;;;;38.33;17.55;;;29.20;37.30;;;;;;5057388;28;19912;-67
2022/10/22 10:56:54;;;;;;;31.42;18.27;;;29.10;37.10;;;;;;5057045;28;20135;-67
2022/10/22 10:59:26;;;;;;;30.52;16.48;;;29.30;38.00;;;;;;5057123;28;20025;-67
2022/10/22 11:02:33;;;;;;;38.70;18.73;;;29.40;36.00;;;;;;5057071;28;20025;-67
2022/10/22 11:05:23;;;;;;;39.85;19.13;;;29.60;39.60;;;;;;5057078;28;20156;-67
2022/10/22 11:08:24;;;;;;;32.53;16.20;;;30.00;37.40;;;;;;5056893;28;20032;-67
2022/10/22 11:11:05;;;;;;;31.65;14.82;;;30.40;33.00;;;;;;5047752;28;20398;-67
2022/10/22 11:13:35;;;;;;;30.45;12.15;;;30.50;33.20;;;;;;5056897;28;20037;-67
2022/10/22 11:16:19;;;;;;;26.73;12.27;;;30.10;31.30;;;;;;5056679;28;20355;-67
2022/10/22 11:19:06;;;;;;;39.13;13.80;;;29.60;31.10;;;;;;5055433;28;20032;-67
2022/10/22 11:21:46;;;;;;;27.13;12.95;;;29.50;33.00;;;;;;5055396;28;20048;-67
2022/10/22 11:24:19;;;;;;;24.08;11.63;;;29.40;35.80;;;;;;5056590;28;20049;-67
2022/10/22 11:26:47;;;;;;;19.95;10.25;;;29.50;30.20;;;;;;5056532;28;20021;-67
2022/10/22 11:29:20;;;;;;;26.85;11.57;;;29.50;29.20;;;;;;5056588;28;20040;-68
2022/10/22 11:31:47;;;;;;;25.73;11.15;;;29.60;29.20;;;;;;5056458;28;20120;-68
2022/10/22 11:34:19;;;;;;;31.80;11.13;;;29.70;28.50;;;;;;5056069;28;20108;-68
2022/10/22 11:36:46;;;;;;;28.45;12.55;;;29.20;25.90;;;;;;5056262;28;20033;-68
2022/10/22 11:39:37;;;;;;;22.58;9.73;;;29.90;27.20;;;;;;5056304;28;20023;-68
2022/10/22 11:42:20;;;;;;;21.40;9.60;;;30.00;25.70;;;;;;5056423;28;20025;-67
2022/10/22 11:44:56;;;;;;;23.27;11.55;;;29.70;25.10;;;;;;5055151;28;20041;-67
2022/10/22 11:47:28;;;;;;;22.77;10.65;;;29.50;26.90;;;;;;5056256;28;20067;-67
2022/10/22 11:50:17;;;;;;;28.50;12.57;;;29.50;30.60;;;;;;5056209;28;20044;-67
2022/10/22 11:53:04;;;;;;;35.53;15.90;;;29.10;31.60;;;;;;5056113;28;20025;-67
2022/10/22 11:55:47;;;;;;;27.90;12.73;;;28.90;32.20;;;;;;5056016;28;20029;-67
2022/10/22 11:58:28;;;;;;;30.10;13.35;;;28.80;30.10;;;;;;5056044;28;20029;-67
2022/10/22 12:01:16;;;;;;;29.08;13.35;;;28.30;33.20;;;;;;5056215;28;20419;-67
2022/10/22 12:03:57;;;;;;;29.75;13.30;;;28.20;33.70;;;;;;5055934;28;20483;-67
2022/10/22 12:06:24;;;;;;;29.77;13.07;;;28.40;32.60;;;;;;5055808;28;20033;-67
2022/10/22 12:08:53;;;;;;;20.65;11.23;;;28.20;32.00;;;;;;5055842;28;20029;-67
2022/10/22 12:11:23;;;;;;;27.00;11.55;;;28.00;33.60;;;;;;5055830;28;20033;-67
2022/10/22 12:14:28;;;;;;;35.15;13.13;;;28.00;34.40;;;;;;5055667;28;20367;-67
2022/10/22 12:17:04;;;;;;;30.27;14.18;;;28.20;32.70;;;;;;5055641;28;20025;-67
2022/10/22 12:19:31;;;;;;;30.02;12.88;;;28.40;32.70;;;;;;5055635;28;20108;-67
2022/10/22 12:22:00;;;;;;;23.83;11.95;;;28.60;33.90;;;;;;5055456;28;20041;-67
2022/10/22 12:24:31;;;;;;;24.40;12.60;;;28.40;33.20;;;;;;5055533;28;20044;-67
2022/10/22 12:26:57;;;;;;;30.40;14.30;;;28.30;33.60;;;;;;5055559;28;20403;-67
2022/10/22 12:29:24;;;;;;;32.22;13.10;;;28.50;32.20;;;;;;5055445;28;20675;-67
2022/10/22 12:31:50;;;;;;;26.48;11.40;;;28.70;32.90;;;;;;5055346;28;20021;-68
2022/10/22 12:34:21;;;;;;;24.83;11.18;;;28.70;29.00;;;;;;5055289;28;20029;-68
2022/10/22 12:36:48;;;;;;;26.88;11.70;;;28.60;29.70;;;;;;5053818;28;20039;-67
2022/10/22 12:39:17;;;;;;;29.75;13.20;;;29.30;30.50;;;;;;5055289;28;20021;-67
2022/10/22 12:41:43;;;;;;;38.17;13.13;;;28.70;29.20;;;;;;5055099;28;20058;-67
2022/10/22 12:44:14;;;;;;;22.67;12.38;;;28.70;29.70;;;;;;5054854;28;20028;-67
2022/10/22 12:46:42;;;;;;;25.15;11.35;;;28.80;28.90;;;;;;5054898;28;20049;-67
2022/10/22 12:49:19;;;;;;;26.85;12.15;;;28.50;28.70;;;;;;5055056;28;20359;-67
2022/10/22 12:51:46;;;;;;;24.45;11.60;;;28.70;29.30;;;;;;5055032;28;20089;-67
2022/10/22 12:54:25;;;;;;;26.98;12.13;;;29.20;29.40;;;;;;5054911;28;20433;-67
2022/10/22 12:56:53;;;;;;;25.60;11.98;;;28.90;28.10;;;;;;5054925;28;20470;-67